Reno, Nevada
Current Conditions -  °F | °C
As of 5:55 PM on Saturday 20 Dec 2014 (Local Time) from KRNO Reporting Station
Overcast Overcast  
Wind Chill: 49°   Ceiling: 7500
Heat Index: 49°   Visibility: 10mi
Dew Point: 34°   Wind: 0mph
Humidity: 56%   Direction: NA
Pressure: 30.12"   Gusts: NA
Location:  39.52°N, 119.81°W
Report Text: KRNO 210155Z 00000KT 10SM SCT050 BKN075 BKN110 BKN140 OVC200 09/01 A3012 RMK AO2 SLP188 T00940011
Loading
Personal Weather Stations






























Interactive Weather Map New forecast layout! Learn more

10-Day Weather Forecast

Advertisements
Track Severe Weather on mobile